createdAt,value
2017-12-14T00:01:34.221Z,98127.06
2017-12-14T00:03:59.962Z,98126.70
2017-12-14T00:06:25.726Z,98120.23
2017-12-14T00:08:51.503Z,98106.87
2017-12-14T00:11:17.259Z,98098.55
2017-12-14T00:13:42.996Z,98100.30
2017-12-14T00:16:08.765Z,98087.59
2017-12-14T00:18:34.533Z,98080.70
2017-12-14T00:21:00.290Z,98072.17
2017-12-14T00:23:26.068Z,98075.54
2017-12-14T00:25:51.838Z,98066.41
2017-12-14T00:28:17.609Z,98064.02
2017-12-14T00:30:43.371Z,98059.54
2017-12-14T00:33:09.135Z,98050.70
2017-12-14T00:35:34.889Z,98050.81
2017-12-14T00:38:00.658Z,98052.84
2017-12-14T00:40:26.417Z,98043.23
2017-12-14T00:42:52.194Z,98037.22
2017-12-14T00:45:17.952Z,98031.58
2017-12-14T00:47:43.719Z,98024.30
2017-12-14T00:50:09.499Z,98021.92
2017-12-14T00:52:35.256Z,98016.61
2017-12-14T00:55:01.021Z,98010.25
2017-12-14T00:57:26.790Z,98003.05
2017-12-14T00:59:52.557Z,98000.22
2017-12-14T01:02:18.303Z,97996.85
2017-12-14T01:04:44.068Z,97992.20
2017-12-14T01:07:09.840Z,97986.50
2017-12-14T01:09:35.595Z,97970.65
2017-12-14T01:12:01.350Z,97970.98
2017-12-14T01:14:27.169Z,97968.32
2017-12-14T01:16:52.887Z,97964.59
2017-12-14T01:19:18.640Z,97961.55
2017-12-14T01:21:44.401Z,97954.66
2017-12-14T01:24:10.148Z,97949.78
2017-12-14T01:26:35.916Z,97948.48
2017-12-14T01:29:01.652Z,97936.98
2017-12-14T01:31:27.412Z,97938.00
2017-12-14T01:33:53.188Z,97943.00
2017-12-14T01:36:18.939Z,97933.50
2017-12-14T01:38:44.693Z,97934.11
2017-12-14T01:41:10.452Z,97918.98
2017-12-14T01:43:36.210Z,97919.45
2017-12-14T01:46:01.956Z,97923.26
2017-12-14T01:48:27.736Z,97928.09
2017-12-14T01:50:53.488Z,97920.48
2017-12-14T01:53:19.257Z,97920.92
2017-12-14T01:55:45.000Z,97922.28
2017-12-14T01:58:10.754Z,97923.36
2017-12-14T02:00:36.507Z,97913.98
2017-12-14T02:03:02.271Z,97914.80
2017-12-14T02:05:28.024Z,97914.19
2017-12-14T02:07:53.796Z,97910.12
2017-12-14T02:10:19.541Z,97919.28
2017-12-14T02:12:45.290Z,97916.16
2017-12-14T02:15:11.052Z,97909.84
2017-12-14T02:17:36.805Z,97919.88
2017-12-14T02:20:02.568Z,97916.41
2017-12-14T02:22:28.320Z,97912.33
2017-12-14T02:24:54.075Z,97915.11
2017-12-14T02:27:19.822Z,97903.38
2017-12-14T02:29:45.586Z,97909.92
2017-12-14T02:32:11.350Z,97918.73
2017-12-14T02:34:37.112Z,97920.36
2017-12-14T02:37:02.874Z,97921.36
2017-12-14T02:39:28.643Z,97921.73
2017-12-14T02:41:54.411Z,97921.41
2017-12-14T02:44:20.161Z,97930.24
2017-12-14T02:46:45.904Z,97921.09
2017-12-14T02:49:11.655Z,97918.00
2017-12-14T02:51:37.409Z,97935.97
2017-12-14T02:54:03.165Z,97936.26
2017-12-14T02:56:28.949Z,97936.56
2017-12-14T02:58:54.690Z,97940.55
2017-12-14T03:01:20.460Z,97947.20
2017-12-14T03:03:46.210Z,97950.05
2017-12-14T03:06:11.960Z,97940.86
2017-12-14T03:08:37.716Z,97945.91
2017-12-14T03:11:03.549Z,97954.64
2017-12-14T03:13:29.309Z,97945.00
2017-12-14T03:15:55.081Z,97956.09
2017-12-14T03:18:20.827Z,97958.31
2017-12-14T03:20:46.617Z,97961.72
2017-12-14T03:23:12.379Z,97964.13
2017-12-14T03:25:38.132Z,97964.06
2017-12-14T03:28:03.885Z,97966.19
2017-12-14T03:30:29.632Z,97975.83
2017-12-14T03:32:55.401Z,97974.27
2017-12-14T03:35:21.165Z,97979.72
2017-12-14T03:37:46.918Z,97989.89
2017-12-14T03:40:12.697Z,97984.73
2017-12-14T03:42:38.443Z,97963.33
2017-12-14T03:45:04.210Z,97978.23
2017-12-14T03:47:29.990Z,97977.30
2017-12-14T03:49:55.749Z,97978.46
2017-12-14T03:52:21.535Z,97976.77
2017-12-14T03:54:47.266Z,97976.09
2017-12-14T03:57:13.037Z,97982.19
2017-12-14T03:59:38.783Z,97991.33
2017-12-14T04:02:04.539Z,97991.06
2017-12-14T04:04:30.312Z,98004.62
2017-12-14T04:06:56.076Z,98014.88
2017-12-14T04:09:21.832Z,98029.98
2017-12-14T04:11:47.604Z,98030.28
2017-12-14T04:14:13.359Z,98027.69
2017-12-14T04:16:39.213Z,98026.81
2017-12-14T04:19:05.686Z,98029.23
2017-12-14T04:21:32.341Z,98037.63
2017-12-14T04:23:58.707Z,98041.16
2017-12-14T04:26:25.095Z,98038.62
2017-12-14T04:28:51.814Z,98048.45
2017-12-14T04:31:17.610Z,98044.30
2017-12-14T04:33:43.388Z,98052.36
2017-12-14T04:36:09.163Z,98052.23
2017-12-14T04:38:34.926Z,98056.34
2017-12-14T04:41:00.687Z,98045.36
2017-12-14T04:43:26.453Z,98069.88
2017-12-14T04:45:52.206Z,98067.84
2017-12-14T04:48:17.965Z,98083.41
2017-12-14T04:50:43.737Z,98070.77
2017-12-14T04:53:09.508Z,98065.30
2017-12-14T04:55:35.322Z,98066.36
2017-12-14T04:58:01.087Z,98073.06
2017-12-14T05:00:26.842Z,98063.94
2017-12-14T05:02:52.608Z,98060.13
2017-12-14T05:05:18.382Z,98066.85
2017-12-14T05:07:44.168Z,98059.45
2017-12-14T05:10:09.939Z,98070.94
2017-12-14T05:12:35.746Z,98072.25
2017-12-14T05:15:01.491Z,98082.25
2017-12-14T05:17:27.239Z,98078.59
2017-12-14T05:19:53.020Z,98068.20
2017-12-14T05:22:18.803Z,98076.08
2017-12-14T05:24:44.563Z,98098.97
2017-12-14T05:27:10.335Z,98103.56
2017-12-14T05:29:36.110Z,98112.83
2017-12-14T05:32:01.866Z,98107.60
2017-12-14T05:34:27.661Z,98119.55
2017-12-14T05:36:53.415Z,98122.59
2017-12-14T05:39:19.204Z,98118.03
2017-12-14T05:41:44.946Z,98132.47
2017-12-14T05:44:10.730Z,98137.83
2017-12-14T05:46:36.500Z,98145.23
2017-12-14T05:49:02.291Z,98149.22
2017-12-14T05:51:28.038Z,98151.26
2017-12-14T05:53:53.807Z,98143.42
2017-12-14T05:56:19.591Z,98172.78
2017-12-14T05:58:45.372Z,98168.80
2017-12-14T06:01:11.148Z,98167.50
2017-12-14T06:03:36.907Z,98161.56
2017-12-14T06:06:02.751Z,98167.13
2017-12-14T06:08:28.516Z,98177.13
2017-12-14T06:10:54.287Z,98183.11
2017-12-14T06:13:20.047Z,98189.02
2017-12-14T06:15:45.816Z,98188.03
2017-12-14T06:18:11.584Z,98192.86
2017-12-14T06:20:37.359Z,98197.48
2017-12-14T06:23:03.148Z,98204.38
2017-12-14T06:25:28.946Z,98197.11
2017-12-14T06:27:54.699Z,98207.50
2017-12-14T06:30:20.467Z,98211.98
2017-12-14T06:32:46.228Z,98216.38
2017-12-14T06:35:12.002Z,98215.26
2017-12-14T06:37:37.752Z,98226.03
2017-12-14T06:40:03.525Z,98227.03
2017-12-14T06:42:29.291Z,98227.58
2017-12-14T06:44:55.088Z,98229.41
2017-12-14T06:47:27.822Z,98229.73
2017-12-14T06:49:53.604Z,98241.59
2017-12-14T06:52:19.364Z,98241.94
2017-12-14T06:54:45.127Z,98254.77
2017-12-14T06:57:10.892Z,98260.81
2017-12-14T06:59:36.655Z,98259.56
2017-12-14T07:02:02.411Z,98261.64
2017-12-14T07:04:28.167Z,98262.90
2017-12-14T07:06:53.933Z,98264.30
2017-12-14T07:09:19.742Z,98269.80
2017-12-14T07:11:45.502Z,98278.08
2017-12-14T07:14:11.257Z,98279.20
2017-12-14T07:16:37.038Z,98278.77
2017-12-14T07:19:02.795Z,98284.49
2017-12-14T07:21:28.570Z,98289.44
2017-12-14T07:23:54.351Z,98291.55
2017-12-14T07:26:20.106Z,98295.20
2017-12-14T07:28:45.875Z,98261.00
2017-12-14T07:31:11.627Z,98300.51
2017-12-14T07:33:38.364Z,98301.55
2017-12-14T07:36:04.162Z,98297.42
2017-12-14T07:38:29.942Z,98295.41
2017-12-14T07:40:55.718Z,98295.58
2017-12-14T07:43:21.507Z,98296.50
2017-12-14T07:46:08.303Z,98303.93
2017-12-14T07:48:34.084Z,98300.76
2017-12-14T07:50:59.872Z,98307.02
2017-12-14T07:53:25.659Z,98304.45
2017-12-14T07:55:51.437Z,98300.14
2017-12-14T07:58:17.202Z,98304.66
2017-12-14T08:00:42.958Z,98317.00
2017-12-14T08:03:08.740Z,98312.92
2017-12-14T08:05:34.522Z,98325.64
2017-12-14T08:08:00.286Z,98315.51
2017-12-14T08:10:26.043Z,98328.80
2017-12-14T08:12:51.801Z,98336.14
2017-12-14T08:15:17.555Z,98349.30
2017-12-14T08:17:43.367Z,98354.30
2017-12-14T08:20:09.133Z,98362.09
2017-12-14T08:22:34.917Z,98359.38
2017-12-14T08:25:00.701Z,98362.63
2017-12-14T08:27:26.459Z,98371.28
2017-12-14T08:29:52.231Z,98370.37
2017-12-14T08:32:17.997Z,98378.97
2017-12-14T08:34:43.775Z,98378.80
2017-12-14T08:37:09.535Z,98382.84
2017-12-14T08:39:35.333Z,98394.03
2017-12-14T08:42:01.095Z,98396.28
2017-12-14T08:44:26.860Z,98388.86
2017-12-14T08:46:52.620Z,98386.44
2017-12-14T08:49:18.375Z,98390.63
2017-12-14T08:51:44.135Z,98401.44
2017-12-14T08:54:09.895Z,98389.19
2017-12-14T08:56:35.658Z,98402.91
2017-12-14T08:59:01.414Z,98417.38
2017-12-14T09:01:27.172Z,98415.89
2017-12-14T09:03:52.928Z,98417.84
2017-12-14T09:06:18.710Z,98420.45
2017-12-14T09:08:44.467Z,98410.01
2017-12-14T09:11:10.236Z,98426.37
2017-12-14T09:13:35.982Z,98432.67
2017-12-14T09:16:01.747Z,98440.09
2017-12-14T09:18:27.498Z,98451.25
2017-12-14T09:20:53.280Z,98450.44
2017-12-14T09:23:19.055Z,98458.56
2017-12-14T09:25:44.827Z,98461.55
2017-12-14T09:28:10.596Z,98460.61
2017-12-14T09:30:36.382Z,98464.37
2017-12-14T09:33:02.141Z,98478.31
2017-12-14T09:35:27.894Z,98467.58
2017-12-14T09:37:53.662Z,98463.63
2017-12-14T09:40:19.414Z,98470.07
2017-12-14T09:42:45.189Z,98465.95
2017-12-14T09:45:10.955Z,98472.28
2017-12-14T09:47:36.731Z,98482.66
2017-12-14T09:50:02.499Z,98479.77
2017-12-14T09:52:28.266Z,98482.66
2017-12-14T09:54:54.019Z,98476.67
2017-12-14T09:57:19.783Z,98488.44
2017-12-14T09:59:45.531Z,98499.83
2017-12-14T10:02:11.315Z,98498.84
2017-12-14T10:04:37.067Z,98490.73
2017-12-14T10:07:02.867Z,98496.56
2017-12-14T10:09:28.624Z,98496.44
2017-12-14T10:11:54.371Z,98489.25
2017-12-14T10:14:20.140Z,98481.64
2017-12-14T10:16:45.904Z,98483.36
2017-12-14T10:19:11.683Z,98488.37
2017-12-14T10:21:37.447Z,98486.66
2017-12-14T10:24:03.225Z,98481.66
2017-12-14T10:26:28.970Z,98487.84
2017-12-14T10:28:54.746Z,98484.48
2017-12-14T10:31:20.534Z,98490.03
2017-12-14T10:33:46.299Z,98504.18
2017-12-14T10:36:12.058Z,98506.02
2017-12-14T10:38:37.807Z,98516.98
2017-12-14T10:41:06.243Z,98511.84
2017-12-14T10:43:33.522Z,98515.47
2017-12-14T10:45:59.310Z,98515.48
2017-12-14T10:48:25.212Z,98519.19
2017-12-14T10:50:59.697Z,98518.58
2017-12-14T10:53:28.232Z,98523.38
2017-12-14T10:55:55.899Z,98518.59
2017-12-14T10:58:21.781Z,98520.98
2017-12-14T11:00:53.731Z,98514.23
2017-12-14T11:03:19.766Z,98520.70
2017-12-14T11:05:49.212Z,98524.36
2017-12-14T11:08:15.492Z,98529.11
2017-12-14T11:10:44.051Z,98522.01
2017-12-14T11:13:10.946Z,98527.03
2017-12-14T11:15:36.768Z,98525.35
2017-12-14T11:18:02.531Z,98527.69
2017-12-14T11:20:28.311Z,98530.13
2017-12-14T11:22:54.056Z,98534.05
2017-12-14T11:25:19.830Z,98531.44
2017-12-14T11:27:45.606Z,98539.33
2017-12-14T11:30:11.512Z,98530.94
2017-12-14T11:32:37.280Z,98544.89
2017-12-14T11:35:03.142Z,98546.59
2017-12-14T11:37:28.907Z,98544.63
2017-12-14T11:39:54.675Z,98538.64
2017-12-14T11:42:20.500Z,98544.73
2017-12-14T11:44:46.293Z,98542.83
2017-12-14T11:47:12.076Z,98546.63
2017-12-14T11:49:37.843Z,98554.91
2017-12-14T11:52:03.608Z,98550.48
2017-12-14T11:54:29.368Z,98551.68
2017-12-14T11:56:55.149Z,98549.89
2017-12-14T11:59:20.949Z,98557.19
2017-12-14T12:01:46.835Z,98556.91
2017-12-14T12:04:12.656Z,98550.83
2017-12-14T12:06:38.428Z,98521.63
2017-12-14T12:09:04.243Z,98553.22
2017-12-14T12:11:30.109Z,98567.25
2017-12-14T12:13:55.884Z,98559.53
2017-12-14T12:16:21.683Z,98556.11
2017-12-14T12:18:47.460Z,98562.48
2017-12-14T12:21:13.243Z,98567.36
2017-12-14T12:23:39.015Z,98568.34
2017-12-14T12:26:04.788Z,98573.39
2017-12-14T12:28:30.548Z,98571.22
2017-12-14T12:30:56.307Z,98570.73
2017-12-14T12:33:22.104Z,98568.83
2017-12-14T12:35:47.865Z,98569.06
2017-12-14T12:38:13.628Z,98573.29
2017-12-14T12:40:39.400Z,98573.07
2017-12-14T12:43:05.352Z,98574.20
2017-12-14T12:45:31.209Z,98576.91
2017-12-14T12:47:57.105Z,98561.13
2017-12-14T12:50:22.973Z,98577.34
2017-12-14T12:52:48.770Z,98584.00
2017-12-14T12:55:14.531Z,98577.96
2017-12-14T12:57:40.391Z,98581.17
2017-12-14T13:00:06.213Z,98585.70
2017-12-14T13:02:31.980Z,98586.90
2017-12-14T13:04:57.743Z,98586.33
2017-12-14T13:07:23.542Z,98586.07
2017-12-14T13:09:49.275Z,98586.18
2017-12-14T13:12:15.047Z,98585.30
2017-12-14T13:14:40.804Z,98592.12
2017-12-14T13:17:06.566Z,98585.39
2017-12-14T13:19:32.315Z,98584.20
2017-12-14T13:21:58.071Z,98589.92
2017-12-14T13:24:23.836Z,98593.94
2017-12-14T13:26:49.583Z,98593.16
2017-12-14T13:29:15.358Z,98599.65
2017-12-14T13:31:41.124Z,98606.27
2017-12-14T13:34:06.899Z,98602.25
2017-12-14T13:36:32.660Z,98613.63
2017-12-14T13:38:58.447Z,98611.88
2017-12-14T13:41:24.207Z,98614.92
2017-12-14T13:43:49.973Z,98614.87
2017-12-14T13:46:15.739Z,98616.69
2017-12-14T13:48:41.515Z,98612.28
2017-12-14T13:51:07.285Z,98612.18
2017-12-14T13:53:33.044Z,98615.91
2017-12-14T13:55:58.822Z,98610.91
2017-12-14T13:58:24.695Z,98617.69
2017-12-14T14:00:50.644Z,98619.09
2017-12-14T14:03:16.507Z,98612.95
2017-12-14T14:05:42.331Z,98619.78
2017-12-14T14:08:08.124Z,98619.29
2017-12-14T14:10:33.956Z,98616.98
2017-12-14T14:12:59.863Z,98620.75
2017-12-14T14:15:25.644Z,98625.97
2017-12-14T14:17:51.511Z,98627.72
2017-12-14T14:20:17.340Z,98628.87
2017-12-14T14:22:43.104Z,98637.47
2017-12-14T14:25:08.880Z,98639.80
2017-12-14T14:27:34.670Z,98636.11
2017-12-14T14:30:00.441Z,98642.73
2017-12-14T14:32:26.235Z,98648.23
2017-12-14T14:34:51.990Z,98648.44
2017-12-14T14:37:17.755Z,98658.00
2017-12-14T14:39:43.549Z,98657.44
2017-12-14T14:42:09.308Z,98659.95
2017-12-14T14:44:35.192Z,98663.91
2017-12-14T14:47:01.093Z,98657.47
2017-12-14T14:49:26.859Z,98660.91
2017-12-14T14:51:52.751Z,98667.11
2017-12-14T14:54:18.575Z,98672.28
2017-12-14T14:56:44.555Z,98672.95
2017-12-14T14:59:10.375Z,98678.16
2017-12-14T15:01:36.122Z,98676.17
2017-12-14T15:04:01.879Z,98675.00
2017-12-14T15:06:27.798Z,98676.01
2017-12-14T15:08:53.613Z,98681.18
2017-12-14T15:11:19.372Z,98688.44
2017-12-14T15:13:45.262Z,98682.22
2017-12-14T15:16:11.007Z,98689.92
2017-12-14T15:18:36.853Z,98685.75
2017-12-14T15:21:02.764Z,98689.92
2017-12-14T15:23:28.544Z,98693.75
2017-12-14T15:25:54.360Z,98697.41
2017-12-14T15:28:20.268Z,98691.39
2017-12-14T15:30:46.027Z,98685.39
2017-12-14T15:33:11.799Z,98685.52
2017-12-14T15:35:37.551Z,98683.48
2017-12-14T15:38:03.307Z,98683.79
2017-12-14T15:40:29.136Z,98685.09
2017-12-14T15:42:54.903Z,98682.22
2017-12-14T15:45:20.667Z,98683.14
2017-12-14T15:47:46.437Z,98691.79
2017-12-14T15:50:12.378Z,98691.61
2017-12-14T15:52:38.214Z,98690.83
2017-12-14T15:55:04.884Z,98698.43
2017-12-14T15:57:30.642Z,98694.12
2017-12-14T15:59:56.403Z,98693.25
2017-12-14T16:02:22.151Z,98700.87
2017-12-14T16:04:48.000Z,98685.00
2017-12-14T16:07:13.772Z,98710.22
2017-12-14T16:09:39.569Z,98712.66
2017-12-14T16:12:05.375Z,98709.88
2017-12-14T16:14:31.148Z,98709.40
2017-12-14T16:16:56.931Z,98717.05
2017-12-14T16:19:22.981Z,98715.27
2017-12-14T16:21:50.080Z,98715.83
2017-12-14T16:24:15.867Z,98710.17
2017-12-14T16:26:41.685Z,98715.27
2017-12-14T16:29:07.446Z,98723.60
2017-12-14T16:31:33.234Z,98715.90
2017-12-14T16:33:58.994Z,98714.16
2017-12-14T16:36:24.755Z,98710.45
2017-12-14T16:38:50.517Z,98715.11
2017-12-14T16:41:16.447Z,98721.14
2017-12-14T16:43:42.237Z,98716.41
2017-12-14T16:46:07.995Z,98709.48
2017-12-14T16:48:33.821Z,98711.63
2017-12-14T16:50:59.569Z,98710.74
2017-12-14T16:53:25.330Z,98703.05
2017-12-14T16:55:51.151Z,98705.18
2017-12-14T16:58:16.972Z,98695.86
2017-12-14T17:00:42.739Z,98703.53
2017-12-14T17:03:08.610Z,98699.84
2017-12-14T17:05:34.493Z,98706.19
2017-12-14T17:08:00.298Z,98703.45
2017-12-14T17:10:26.055Z,98704.21
2017-12-14T17:12:51.823Z,98697.84
2017-12-14T17:15:17.566Z,98700.75
2017-12-14T17:17:43.335Z,98694.75
2017-12-14T17:20:09.075Z,98700.89
2017-12-14T17:22:34.831Z,98695.80
2017-12-14T17:25:00.586Z,98693.64
2017-12-14T17:27:26.355Z,98695.19
2017-12-14T17:29:52.231Z,98700.65
2017-12-14T17:32:18.324Z,98695.14
2017-12-14T17:34:44.140Z,98687.49
2017-12-14T17:37:09.903Z,98691.41
2017-12-14T17:39:35.652Z,98687.14
2017-12-14T17:42:01.442Z,98694.69
2017-12-14T17:44:27.211Z,98698.61
2017-12-14T17:46:52.968Z,98705.48
2017-12-14T17:49:18.726Z,98699.44
2017-12-14T17:51:44.503Z,98693.19
2017-12-14T17:54:10.291Z,98702.91
2017-12-14T17:56:36.071Z,98700.39
2017-12-14T17:59:01.840Z,98703.23
2017-12-14T18:01:27.603Z,98709.95
2017-12-14T18:03:53.378Z,98717.56
2017-12-14T18:06:19.144Z,98717.09
2017-12-14T18:08:44.899Z,98708.34
2017-12-14T18:11:10.694Z,98716.35
2017-12-14T18:13:36.467Z,98718.27
2017-12-14T18:16:02.227Z,98717.05
2017-12-14T18:18:27.995Z,98725.27
2017-12-14T18:20:53.744Z,98721.41
2017-12-14T18:23:19.525Z,98726.10
2017-12-14T18:25:45.295Z,98725.05
2017-12-14T18:28:11.095Z,98730.10
2017-12-14T18:30:36.863Z,98723.05
2017-12-14T18:33:02.657Z,98730.48
2017-12-14T18:35:28.408Z,98734.88
2017-12-14T18:37:54.196Z,98726.02
2017-12-14T18:40:19.980Z,98730.02
2017-12-14T18:42:45.759Z,98730.19
2017-12-14T18:45:11.551Z,98733.16
2017-12-14T18:47:37.311Z,98733.37
2017-12-14T18:50:03.074Z,98742.98
2017-12-14T18:52:28.831Z,98741.23
2017-12-14T18:54:54.603Z,98736.71
2017-12-14T18:57:21.147Z,98741.33
2017-12-14T18:59:46.948Z,98736.84
2017-12-14T19:02:12.714Z,98739.71
2017-12-14T19:04:38.477Z,98742.13
2017-12-14T19:07:04.261Z,98744.13
2017-12-14T19:09:30.019Z,98743.30
2017-12-14T19:11:55.816Z,98746.88
2017-12-14T19:14:21.576Z,98748.27
2017-12-14T19:16:47.352Z,98751.67
2017-12-14T19:19:13.112Z,98746.30
2017-12-14T19:21:38.904Z,98722.02
2017-12-14T19:24:04.677Z,98747.81
2017-12-14T19:26:30.447Z,98753.08
2017-12-14T19:28:56.191Z,98758.13
2017-12-14T19:31:21.999Z,98758.74
2017-12-14T19:33:47.756Z,98758.27
2017-12-14T19:36:13.559Z,98753.52
2017-12-14T19:38:39.314Z,98751.68
2017-12-14T19:41:05.103Z,98750.33
2017-12-14T19:43:30.896Z,98753.77
2017-12-14T19:45:56.680Z,98746.08
2017-12-14T19:48:22.470Z,98747.03
2017-12-14T19:50:48.231Z,98746.64
2017-12-14T19:53:13.992Z,98745.34
2017-12-14T19:55:39.767Z,98745.25
2017-12-14T19:58:05.547Z,98754.14
2017-12-14T20:00:31.332Z,98752.53
2017-12-14T20:02:57.099Z,98749.05
2017-12-14T20:05:22.853Z,98748.80
2017-12-14T20:07:48.618Z,98743.48
2017-12-14T20:10:14.381Z,98749.23
2017-12-14T20:12:40.155Z,98749.28
2017-12-14T20:15:05.933Z,98753.31
2017-12-14T20:17:31.703Z,98755.36
2017-12-14T20:19:57.458Z,98757.09
2017-12-14T20:22:23.235Z,98755.61
2017-12-14T20:24:49.013Z,98752.61
2017-12-14T20:27:14.809Z,98779.64
2017-12-14T20:29:40.587Z,98767.17
2017-12-14T20:32:06.346Z,98769.05
2017-12-14T20:34:32.106Z,98766.66
2017-12-14T20:36:57.884Z,98772.63
2017-12-14T20:39:23.655Z,98769.97
2017-12-14T20:41:49.419Z,98775.53
2017-12-14T20:44:15.223Z,98781.37
2017-12-14T20:46:40.994Z,98783.03
2017-12-14T20:49:06.743Z,98778.23
2017-12-14T20:51:32.502Z,98780.38
2017-12-14T20:53:58.327Z,98772.67
2017-12-14T20:56:24.078Z,98772.97
2017-12-14T20:58:49.931Z,98774.81
2017-12-14T21:01:15.699Z,98771.84
2017-12-14T21:03:41.460Z,98776.52
2017-12-14T21:06:07.240Z,98776.48
2017-12-14T21:08:33.012Z,98780.64
2017-12-14T21:10:58.822Z,98783.02
2017-12-14T21:13:24.580Z,98785.68
2017-12-14T21:15:50.351Z,98782.20
2017-12-14T21:18:16.130Z,98774.73
2017-12-14T21:20:41.912Z,98771.06
2017-12-14T21:23:07.697Z,98776.56
2017-12-14T21:25:33.455Z,98775.95
2017-12-14T21:27:59.247Z,98771.10
2017-12-14T21:30:25.018Z,98768.83
2017-12-14T21:32:50.819Z,98765.94
2017-12-14T21:35:16.578Z,98770.96
2017-12-14T21:37:42.354Z,98786.16
2017-12-14T21:40:08.116Z,98782.15
2017-12-14T21:42:33.893Z,98779.77
2017-12-14T21:44:59.673Z,98772.91
2017-12-14T21:47:31.690Z,98777.16
2017-12-14T21:49:57.490Z,98776.78
2017-12-14T21:52:23.268Z,98771.94
2017-12-14T21:54:49.016Z,98773.20
2017-12-14T21:57:14.799Z,98765.36
2017-12-14T21:59:40.591Z,98760.42
2017-12-14T22:02:06.371Z,98761.30
2017-12-14T22:04:32.148Z,98771.52
2017-12-14T22:06:57.910Z,98764.20
2017-12-14T22:09:23.684Z,98764.97
2017-12-14T22:11:49.445Z,98765.41
2017-12-14T22:14:15.216Z,98776.05
2017-12-14T22:16:40.989Z,98779.14
2017-12-14T22:19:06.763Z,98778.81
2017-12-14T22:21:32.531Z,98779.06
2017-12-14T22:23:58.300Z,98780.41
2017-12-14T22:26:24.065Z,98782.50
2017-12-14T22:28:49.815Z,98771.89
2017-12-14T22:31:15.582Z,98780.56
2017-12-14T22:33:41.351Z,98783.13
2017-12-14T22:36:07.156Z,98783.95
2017-12-14T22:38:32.909Z,98789.66
2017-12-14T22:40:58.674Z,98780.03
2017-12-14T22:43:24.432Z,98787.19
2017-12-14T22:45:50.208Z,98787.28
2017-12-14T22:48:15.969Z,98765.31
2017-12-14T22:50:41.738Z,98787.38
2017-12-14T22:53:07.507Z,98792.56
2017-12-14T22:55:33.280Z,98787.19
2017-12-14T22:57:59.032Z,98788.21
2017-12-14T23:00:24.838Z,98784.62
2017-12-14T23:02:50.595Z,98780.94
2017-12-14T23:05:16.350Z,98792.56
2017-12-14T23:07:42.122Z,98790.69
2017-12-14T23:10:07.904Z,98786.56
2017-12-14T23:12:33.666Z,98783.17
2017-12-14T23:14:59.428Z,98788.50
2017-12-14T23:17:25.203Z,98787.71
2017-12-14T23:19:50.962Z,98784.62
2017-12-14T23:22:16.735Z,98792.80
2017-12-14T23:24:42.488Z,98792.71
2017-12-14T23:27:08.255Z,98803.30
2017-12-14T23:29:34.003Z,98794.41
2017-12-14T23:31:59.811Z,98801.76
2017-12-14T23:34:25.599Z,98805.78
2017-12-14T23:36:51.390Z,98804.72
2017-12-14T23:39:17.162Z,98785.45
2017-12-14T23:41:42.937Z,98810.96
2017-12-14T23:44:08.704Z,98812.37
2017-12-14T23:46:34.465Z,98803.84
2017-12-14T23:49:00.253Z,98815.42
2017-12-14T23:51:26.006Z,98813.91
2017-12-14T23:53:51.775Z,98812.22
2017-12-14T23:56:17.535Z,98818.76
2017-12-14T23:58:43.321Z,98818.99
